Time;durP1;ratioP1;P1;durP2;ratioP2;P2;SDS_P1;SDS_P2;PMS_P1;PMS_P2;Temp;Humidity;BMP_temperature;BMP_pressure;BME280_temperature;BME280_humidity;BME280_pressure;Samples;Min_cycle;Max_cycle;Signal;HPM_P1;HPM_P2
2022/04/25 00:00:35;;;;;;;12.30;7.78;;;10.10;99.90;;;;;;5114521;28;20097;-70
2022/04/25 00:03:01;;;;;;;12.93;8.40;;;10.10;99.90;;;;;;5114377;28;20097;-70
2022/04/25 00:05:27;;;;;;;12.40;7.95;;;10.10;99.90;;;;;;5097360;28;20054;-70
2022/04/25 00:07:53;;;;;;;12.60;8.07;;;10.10;99.90;;;;;;5114306;28;20040;-70
2022/04/25 00:10:20;;;;;;;13.07;8.57;;;10.20;99.90;;;;;;5114349;28;20039;-70
2022/04/25 00:12:45;;;;;;;10.43;8.02;;;10.10;99.90;;;;;;5114435;28;20411;-71
2022/04/25 00:15:12;;;;;;;14.23;9.00;;;10.10;99.90;;;;;;5114491;28;20515;-71
2022/04/25 00:17:38;;;;;;;12.30;8.40;;;10.10;99.90;;;;;;5114127;28;20463;-71
2022/04/25 00:20:05;;;;;;;13.65;9.00;;;10.10;99.90;;;;;;5114114;28;20126;-70
2022/04/25 00:22:31;;;;;;;15.65;9.05;;;10.10;99.90;;;;;;5114248;28;20399;-70
2022/04/25 00:24:56;;;;;;;13.05;8.90;;;10.10;99.90;;;;;;5114011;28;20035;-70
2022/04/25 00:27:22;;;;;;;12.20;9.02;;;10.10;99.90;;;;;;5114087;28;20101;-71
2022/04/25 00:29:48;;;;;;;12.90;8.82;;;10.10;99.90;;;;;;5113959;28;20407;-71
2022/04/25 00:32:13;;;;;;;16.20;9.75;;;10.10;99.90;;;;;;5096918;28;20071;-71
2022/04/25 00:34:39;;;;;;;13.82;8.80;;;10.10;99.90;;;;;;5113944;28;20042;-71
2022/04/25 00:37:04;;;;;;;19.63;9.93;;;10.10;99.90;;;;;;5113809;28;20043;-71
2022/04/25 00:39:30;;;;;;;14.10;9.95;;;10.10;99.90;;;;;;5113734;28;20043;-70
2022/04/25 00:41:57;;;;;;;16.05;9.32;;;10.10;99.90;;;;;;5113678;28;20035;-71
2022/04/25 00:44:23;;;;;;;16.58;10.43;;;10.10;99.90;;;;;;5113576;28;20519;-71
2022/04/25 00:46:51;;;;;;;20.40;11.25;;;10.10;99.90;;;;;;5113782;28;20047;-70
2022/04/25 00:49:17;;;;;;;20.25;12.20;;;10.00;99.90;;;;;;5113588;28;20110;-70
2022/04/25 00:51:43;;;;;;;18.90;11.60;;;10.00;99.90;;;;;;5113510;28;20173;-70
2022/04/25 00:54:09;;;;;;;17.90;11.68;;;10.00;99.90;;;;;;5113392;28;20047;-70
2022/04/25 00:56:35;;;;;;;16.77;10.93;;;10.00;99.90;;;;;;5113701;28;20104;-71
2022/04/25 00:59:03;;;;;;;17.73;11.75;;;9.90;99.90;;;;;;5113416;28;20036;-71
2022/04/25 01:01:31;;;;;;;17.20;11.05;;;9.90;99.90;;;;;;5113394;28;20039;-71
2022/04/25 01:03:57;;;;;;;15.75;10.68;;;9.80;99.90;;;;;;5113249;28;20043;-71
2022/04/25 01:06:23;;;;;;;17.63;11.30;;;9.80;99.90;;;;;;5096429;28;20035;-71
2022/04/25 01:08:51;;;;;;;16.58;11.30;;;9.80;99.90;;;;;;5113155;28;20035;-71
2022/04/25 01:11:17;;;;;;;17.88;12.82;;;9.80;99.90;;;;;;5113136;28;20035;-71
2022/04/25 01:13:44;;;;;;;19.23;12.90;;;9.80;99.90;;;;;;5113764;28;20040;-71
2022/04/25 01:16:09;;;;;;;17.30;12.52;;;9.80;99.90;;;;;;5113043;28;20495;-71
2022/04/25 01:18:35;;;;;;;17.98;11.68;;;9.70;99.90;;;;;;5113010;28;20036;-71
2022/04/25 01:21:03;;;;;;;16.42;12.68;;;9.70;99.90;;;;;;5113244;28;20062;-71
2022/04/25 01:28:58;;;;;;;15.18;11.57;;;9.60;99.90;;;;;;5112824;28;20487;-71
2022/04/25 01:31:24;;;;;;;21.13;12.57;;;9.60;99.90;;;;;;5112808;28;20046;-71
2022/04/25 01:33:49;;;;;;;19.88;13.00;;;9.60;99.90;;;;;;5095674;28;20043;-71
2022/04/25 01:36:15;;;;;;;17.40;12.32;;;9.50;99.90;;;;;;5112991;28;20040;-71
2022/04/25 01:38:41;;;;;;;16.83;13.00;;;9.50;99.90;;;;;;5112939;28;20372;-71
2022/04/25 01:41:07;;;;;;;16.73;12.43;;;9.50;99.90;;;;;;5112635;28;20507;-71
2022/04/25 01:43:38;;;;;;;17.73;12.38;;;9.50;99.90;;;;;;5112520;28;20031;-71
2022/04/25 01:46:04;;;;;;;18.55;13.10;;;9.50;99.90;;;;;;5112582;28;20036;-71
2022/04/25 01:48:31;;;;;;;19.27;13.40;;;9.50;99.90;;;;;;5112525;28;20103;-70
2022/04/25 01:50:56;;;;;;;14.63;11.30;;;9.40;99.90;;;;;;5112540;28;20039;-70
2022/04/25 01:53:22;;;;;;;15.35;12.77;;;9.50;99.90;;;;;;5112424;28;20038;-71
2022/04/25 01:55:47;;;;;;;16.30;12.32;;;9.40;99.90;;;;;;5095541;28;20084;-71
2022/04/25 01:58:13;;;;;;;19.33;12.70;;;9.40;99.90;;;;;;5112681;28;20050;-71
2022/04/25 02:00:39;;;;;;;21.70;13.90;;;9.40;99.90;;;;;;5112405;28;20044;-71
2022/04/25 02:03:05;;;;;;;15.70;12.07;;;9.40;99.90;;;;;;5112545;28;20042;-71
2022/04/25 02:05:31;;;;;;;18.45;13.07;;;9.30;99.90;;;;;;5112376;28;20515;-71
2022/04/25 02:07:56;;;;;;;19.92;12.32;;;9.30;99.90;;;;;;5112333;28;20057;-71
2022/04/25 02:10:22;;;;;;;22.92;14.02;;;9.30;99.90;;;;;;5095611;28;20044;-71
2022/04/25 02:12:47;;;;;;;18.88;12.85;;;9.30;99.90;;;;;;5112200;28;20115;-71
2022/04/25 02:15:13;;;;;;;17.85;12.20;;;9.20;99.90;;;;;;5112284;28;20035;-71
2022/04/25 02:17:41;;;;;;;20.05;14.15;;;9.20;99.90;;;;;;5112494;28;20132;-71
2022/04/25 02:20:08;;;;;;;18.63;13.48;;;9.10;99.90;;;;;;5113513;28;20048;-71
2022/04/25 02:22:38;;;;;;;15.88;11.60;;;9.10;99.90;;;;;;5116690;28;20039;-71
2022/04/25 02:25:04;;;;;;;19.13;13.35;;;9.10;99.90;;;;;;5099347;28;20043;-71
2022/04/25 02:27:30;;;;;;;17.70;13.15;;;9.00;99.90;;;;;;5116287;28;20567;-71
2022/04/25 02:29:58;;;;;;;18.58;11.85;;;9.00;99.90;;;;;;5116287;28;20035;-71
2022/04/25 02:32:28;;;;;;;18.02;12.13;;;9.00;99.90;;;;;;5099235;28;20040;-71
2022/04/25 02:34:57;;;;;;;16.20;12.98;;;9.00;99.90;;;;;;5116220;28;20118;-71
2022/04/25 02:37:23;;;;;;;17.48;13.00;;;9.00;99.90;;;;;;5116109;28;20042;-71
2022/04/25 02:39:50;;;;;;;21.60;12.88;;;9.00;99.90;;;;;;5116090;28;20051;-71
2022/04/25 02:42:16;;;;;;;13.35;11.32;;;9.00;99.90;;;;;;5116045;28;20075;-70
2022/04/25 02:44:41;;;;;;;17.95;12.20;;;9.00;99.90;;;;;;5115972;28;20067;-70
2022/04/25 02:47:08;;;;;;;21.63;12.27;;;9.00;99.90;;;;;;5116107;28;20094;-70
2022/04/25 02:49:34;;;;;;;18.70;12.52;;;9.00;99.90;;;;;;5116225;28;20101;-70
2022/04/25 02:51:59;;;;;;;20.40;12.43;;;8.90;99.90;;;;;;5116180;28;20499;-70
2022/04/25 02:54:25;;;;;;;15.25;11.85;;;8.90;99.90;;;;;;5098997;28;20503;-71
2022/04/25 02:56:50;;;;;;;15.38;10.82;;;8.90;99.90;;;;;;5115768;28;20403;-71
2022/04/25 02:59:16;;;;;;;17.25;11.38;;;8.90;99.90;;;;;;5115780;28;20122;-71
2022/04/25 03:01:42;;;;;;;17.33;11.55;;;8.90;99.90;;;;;;5115696;28;20073;-71
2022/04/25 03:04:08;;;;;;;17.73;11.07;;;8.90;99.90;;;;;;5115597;28;20040;-71
2022/04/25 03:06:34;;;;;;;16.00;11.00;;;8.90;99.90;;;;;;5115488;28;20051;-71
2022/04/25 03:09:00;;;;;;;17.65;11.43;;;8.90;99.90;;;;;;5115594;28;20039;-71
2022/04/25 03:11:26;;;;;;;17.95;11.27;;;8.90;99.90;;;;;;5115466;28;20488;-71
2022/04/25 03:13:55;;;;;;;16.15;11.48;;;8.90;99.90;;;;;;5115438;28;20088;-71
2022/04/25 03:16:21;;;;;;;17.95;10.80;;;8.90;99.90;;;;;;5115610;28;20546;-71
2022/04/25 03:18:48;;;;;;;17.60;10.63;;;8.90;99.90;;;;;;5115396;28;20176;-71
2022/04/25 03:21:14;;;;;;;17.52;10.73;;;9.00;99.90;;;;;;5115581;28;20047;-70
2022/04/25 03:23:39;;;;;;;14.98;10.57;;;9.00;99.90;;;;;;5115450;28;20511;-70
2022/04/25 03:26:06;;;;;;;15.73;10.60;;;9.00;99.90;;;;;;5115502;28;20044;-70
2022/04/25 03:28:32;;;;;;;15.38;10.90;;;9.00;99.90;;;;;;5115084;28;20048;-70
2022/04/25 03:30:58;;;;;;;14.55;10.05;;;9.00;99.90;;;;;;5114704;28;20042;-71
2022/04/25 03:33:24;;;;;;;15.63;9.88;;;9.00;99.90;;;;;;5114490;28;20031;-70
2022/04/25 03:35:50;;;;;;;17.38;11.20;;;9.00;99.90;;;;;;5115037;28;20560;-70
2022/04/25 03:38:17;;;;;;;15.43;10.40;;;9.00;99.90;;;;;;5114938;28;20114;-70
2022/04/25 03:40:43;;;;;;;13.38;9.98;;;9.00;99.90;;;;;;5114986;28;20074;-70
2022/04/25 03:43:09;;;;;;;14.40;10.65;;;9.00;99.90;;;;;;5097759;28;20035;-70
2022/04/25 03:45:35;;;;;;;18.05;10.27;;;8.90;99.90;;;;;;5115093;28;20089;-70
2022/04/25 03:48:01;;;;;;;17.65;10.50;;;8.90;99.90;;;;;;5114746;28;20487;-70
2022/04/25 03:50:27;;;;;;;15.05;10.82;;;8.80;99.90;;;;;;5114911;28;20093;-70
2022/04/25 03:52:53;;;;;;;13.52;10.02;;;8.80;99.90;;;;;;5114630;28;20032;-70
2022/04/25 03:58:05;;;;;;;14.90;9.90;;;8.90;99.90;;;;;;5114605;28;20052;-70
2022/04/25 04:00:31;;;;;;;15.00;10.30;;;8.90;99.90;;;;;;5114522;28;20043;-71
2022/04/25 04:02:58;;;;;;;21.73;11.32;;;8.90;99.90;;;;;;5097636;28;20044;-71
2022/04/25 04:05:27;;;;;;;19.27;10.57;;;8.80;99.90;;;;;;5114520;28;20036;-71
2022/04/25 04:07:54;;;;;;;17.75;11.20;;;8.80;99.90;;;;;;5097316;28;20036;-71
2022/04/25 04:10:20;;;;;;;18.60;11.82;;;8.80;99.90;;;;;;5114364;28;20039;-71
2022/04/25 04:12:46;;;;;;;19.23;12.82;;;8.80;99.90;;;;;;5114262;28;20035;-71
2022/04/25 04:15:13;;;;;;;18.08;11.48;;;8.80;99.90;;;;;;5114523;28;20052;-71
2022/04/25 04:17:40;;;;;;;21.30;11.63;;;8.80;99.90;;;;;;5114493;28;20066;-71
2022/04/25 04:20:08;;;;;;;18.92;11.65;;;8.80;99.90;;;;;;5097400;28;20078;-71
2022/04/25 04:22:34;;;;;;;16.65;10.48;;;8.80;99.90;;;;;;5097405;28;20039;-71
2022/04/25 04:25:22;;;;;;;16.23;10.57;;;8.80;99.90;;;;;;5115354;28;20483;-71
2022/04/25 04:27:48;;;;;;;17.08;11.50;;;8.80;99.90;;;;;;5097096;28;20040;-71
2022/04/25 04:30:15;;;;;;;15.77;11.00;;;8.80;99.90;;;;;;5113938;28;20533;-71
2022/04/25 04:32:41;;;;;;;19.42;12.02;;;8.80;99.90;;;;;;5113744;28;20040;-71
2022/04/25 04:35:09;;;;;;;17.55;10.75;;;8.90;99.90;;;;;;5114094;28;20036;-71
2022/04/25 04:37:36;;;;;;;20.23;11.77;;;8.80;99.90;;;;;;5096758;28;20479;-71
2022/04/25 04:42:47;;;;;;;17.70;10.68;;;8.80;99.90;;;;;;5113360;28;20131;-71
2022/04/25 04:45:13;;;;;;;16.05;10.52;;;8.80;99.90;;;;;;5113738;28;20122;-70
2022/04/25 04:47:39;;;;;;;18.42;11.32;;;8.90;99.90;;;;;;5096643;28;20131;-71
2022/04/25 04:50:14;;;;;;;17.65;11.60;;;8.90;99.90;;;;;;5113851;28;20104;-71
2022/04/25 04:52:41;;;;;;;18.15;11.43;;;8.90;99.90;;;;;;5113790;28;20050;-71
2022/04/25 04:55:06;;;;;;;16.73;10.65;;;8.90;99.90;;;;;;5113720;28;20062;-71
2022/04/25 04:57:32;;;;;;;14.07;10.30;;;8.90;99.90;;;;;;5113671;28;20546;-71
2022/04/25 04:59:57;;;;;;;14.00;9.88;;;8.90;99.90;;;;;;5113344;28;20518;-71
2022/04/25 05:02:23;;;;;;;19.70;11.23;;;8.90;99.90;;;;;;5113394;28;20071;-71
2022/04/25 05:04:50;;;;;;;17.73;10.63;;;8.90;99.90;;;;;;5096549;28;20048;-71
2022/04/25 05:07:16;;;;;;;15.38;10.20;;;8.90;99.90;;;;;;5113163;28;20044;-71
2022/04/25 05:09:42;;;;;;;13.88;9.98;;;8.90;99.90;;;;;;5113504;28;20039;-71
2022/04/25 05:12:09;;;;;;;13.40;9.52;;;8.90;99.90;;;;;;5113210;28;20119;-71
2022/04/25 05:14:34;;;;;;;15.48;9.48;;;8.90;99.90;;;;;;5112984;28;20039;-71
2022/04/25 05:17:00;;;;;;;16.42;10.32;;;8.90;99.90;;;;;;5096118;28;20046;-71
2022/04/25 05:19:25;;;;;;;13.38;9.55;;;8.80;99.90;;;;;;5113067;28;20043;-71
2022/04/25 05:21:51;;;;;;;15.10;8.77;;;8.80;99.90;;;;;;5113286;28;20101;-71
2022/04/25 05:24:16;;;;;;;17.15;9.57;;;8.80;99.90;;;;;;5113128;28;20518;-71
2022/04/25 05:26:42;;;;;;;15.38;8.77;;;8.80;99.90;;;;;;5096113;28;20535;-71
2022/04/25 05:29:07;;;;;;;19.70;9.65;;;8.80;99.90;;;;;;5113153;28;20564;-71
2022/04/25 05:31:33;;;;;;;12.20;8.38;;;8.80;99.90;;;;;;5113027;28;20487;-72
2022/04/25 05:34:00;;;;;;;12.70;9.00;;;8.90;99.90;;;;;;5112469;28;20035;-70
2022/04/25 05:36:25;;;;;;;12.73;8.40;;;8.80;99.90;;;;;;5112761;28;20157;-70
2022/04/25 05:38:51;;;;;;;12.85;8.32;;;8.80;99.90;;;;;;5095659;28;20481;-69
2022/04/25 05:41:17;;;;;;;14.85;8.77;;;8.80;99.90;;;;;;5095683;28;20039;-70
2022/04/25 05:43:43;;;;;;;13.15;7.93;;;8.80;99.90;;;;;;5112548;28;20564;-70
2022/04/25 05:46:09;;;;;;;11.60;8.27;;;8.70;99.90;;;;;;5112629;28;20044;-70
2022/04/25 05:54:04;;;;;;;12.95;8.57;;;8.70;99.90;;;;;;5112229;28;20047;-70
2022/04/25 05:56:30;;;;;;;16.20;10.02;;;8.70;99.90;;;;;;5112010;28;20035;-70
2022/04/25 05:58:55;;;;;;;16.30;9.15;;;8.70;99.90;;;;;;5095437;28;20128;-70
2022/04/25 06:01:21;;;;;;;15.88;9.68;;;8.70;99.90;;;;;;5095414;28;20050;-70
2022/04/25 06:03:47;;;;;;;14.82;9.68;;;8.80;99.90;;;;;;5112544;28;20042;-70
2022/04/25 06:06:12;;;;;;;17.20;10.05;;;8.80;99.90;;;;;;5112336;28;20445;-70
2022/04/25 06:08:38;;;;;;;16.65;9.30;;;8.70;99.90;;;;;;5112223;28;20122;-70
2022/04/25 06:11:04;;;;;;;13.05;9.40;;;8.70;99.90;;;;;;5095374;28;20092;-70
2022/04/25 06:13:29;;;;;;;13.73;9.13;;;8.80;99.90;;;;;;5112165;28;20036;-70
2022/04/25 06:15:55;;;;;;;15.93;9.93;;;8.80;99.90;;;;;;5095287;28;20031;-70
2022/04/25 06:18:20;;;;;;;13.45;10.02;;;8.90;99.90;;;;;;5112300;28;20079;-70
2022/04/25 06:20:46;;;;;;;12.88;10.27;;;8.90;99.90;;;;;;5112470;28;20036;-70
2022/04/25 06:23:11;;;;;;;14.35;9.90;;;9.00;99.90;;;;;;5112118;28;20044;-70
2022/04/25 06:25:37;;;;;;;16.17;9.93;;;9.00;99.90;;;;;;5112158;28;20082;-70
2022/04/25 06:28:04;;;;;;;14.55;10.32;;;9.00;99.90;;;;;;5112017;28;20123;-70
2022/04/25 06:30:30;;;;;;;14.50;9.57;;;9.00;99.90;;;;;;5112056;28;20455;-70
2022/04/25 06:33:00;;;;;;;17.20;10.40;;;9.10;99.90;;;;;;5111923;28;20034;-70
2022/04/25 06:35:26;;;;;;;12.30;9.77;;;9.10;99.90;;;;;;5095158;28;20035;-70
2022/04/25 06:37:52;;;;;;;13.75;10.32;;;9.20;99.90;;;;;;5112013;28;20483;-69
2022/04/25 06:40:20;;;;;;;14.55;9.98;;;9.20;99.90;;;;;;5112061;28;20047;-69
2022/04/25 06:42:46;;;;;;;17.00;10.63;;;9.20;99.90;;;;;;5095465;28;20031;-70
2022/04/25 06:45:13;;;;;;;15.48;10.00;;;9.20;99.90;;;;;;5112259;28;20046;-69
2022/04/25 06:47:38;;;;;;;13.32;9.18;;;9.20;99.90;;;;;;5111975;28;20109;-69
2022/04/25 06:50:05;;;;;;;13.95;9.65;;;9.10;99.90;;;;;;5111958;28;20039;-69
2022/04/25 06:52:31;;;;;;;12.63;8.40;;;9.20;99.90;;;;;;5111905;28;20035;-69
2022/04/25 06:54:57;;;;;;;16.70;9.18;;;9.20;99.90;;;;;;5094877;28;20116;-69
2022/04/25 06:57:23;;;;;;;12.23;9.43;;;9.20;99.90;;;;;;5111898;28;20043;-69
2022/04/25 06:59:48;;;;;;;13.88;8.80;;;9.20;99.90;;;;;;5112187;28;20039;-69
2022/04/25 07:02:15;;;;;;;12.32;8.90;;;9.20;99.90;;;;;;5111839;28;20412;-69
2022/04/25 07:04:42;;;;;;;14.27;8.70;;;9.20;99.90;;;;;;5111993;28;20487;-69
2022/04/25 07:07:08;;;;;;;12.63;7.72;;;9.20;99.90;;;;;;5115498;28;20040;-69
2022/04/25 07:09:34;;;;;;;13.68;7.88;;;9.20;99.90;;;;;;5115642;28;20045;-69
2022/04/25 07:12:00;;;;;;;11.45;7.20;;;9.10;99.90;;;;;;5115524;28;20035;-69
2022/04/25 07:14:28;;;;;;;11.57;7.68;;;9.10;99.90;;;;;;5115395;28;20414;-69
2022/04/25 07:16:56;;;;;;;12.25;7.82;;;9.10;99.90;;;;;;5115443;28;20088;-69
2022/04/25 07:19:22;;;;;;;12.40;7.40;;;9.10;99.90;;;;;;5115405;28;20032;-69
2022/04/25 07:30:01;;;;;;;13.73;6.82;;;9.00;99.90;;;;;;5115687;28;20036;-70
2022/04/25 07:32:27;;;;;;;12.68;7.72;;;9.00;99.90;;;;;;5115301;28;20046;-70
2022/04/25 07:34:52;;;;;;;11.43;7.32;;;9.00;99.90;;;;;;5115192;28;20031;-70
2022/04/25 07:37:22;;;;;;;14.27;8.02;;;9.00;99.90;;;;;;5115284;28;20073;-70
2022/04/25 07:39:49;;;;;;;12.75;7.70;;;9.00;99.90;;;;;;5115275;28;20114;-70
2022/04/25 07:42:18;;;;;;;9.32;6.82;;;9.00;99.90;;;;;;5114958;28;20062;-70
2022/04/25 07:44:44;;;;;;;10.40;7.80;;;9.00;99.90;;;;;;5115052;28;20114;-70
2022/04/25 07:47:10;;;;;;;12.80;7.22;;;8.90;99.90;;;;;;5114680;28;20448;-70
2022/04/25 07:49:38;;;;;;;9.73;7.13;;;8.90;99.90;;;;;;5114767;28;20168;-70
2022/04/25 07:52:04;;;;;;;12.55;7.55;;;9.00;99.90;;;;;;5097737;28;20533;-70
2022/04/25 07:54:29;;;;;;;12.05;7.35;;;9.10;99.90;;;;;;5114888;28;20053;-70
2022/04/25 07:56:55;;;;;;;11.55;7.68;;;9.10;99.90;;;;;;5114619;28;20040;-70
2022/04/25 07:59:21;;;;;;;12.80;7.38;;;9.10;99.90;;;;;;5114556;28;20040;-70
2022/04/25 08:01:47;;;;;;;10.48;7.22;;;9.20;99.90;;;;;;5114612;28;20061;-70
2022/04/25 08:04:13;;;;;;;11.45;7.60;;;9.20;99.90;;;;;;5114363;28;20054;-70
2022/04/25 08:06:39;;;;;;;11.20;7.60;;;9.20;99.90;;;;;;5114634;28;20043;-70
2022/04/25 08:09:05;;;;;;;11.20;7.10;;;9.20;99.90;;;;;;5114674;28;20071;-70
2022/04/25 08:11:31;;;;;;;12.13;7.20;;;9.10;99.90;;;;;;5114377;28;20043;-70
2022/04/25 08:19:37;;;;;;;14.10;8.25;;;9.10;99.90;;;;;;5060740;28;20037;-70
2022/04/25 08:22:06;;;;;;;14.65;8.13;;;9.10;99.90;;;;;;5114473;28;20100;-70
2022/04/25 08:24:33;;;;;;;13.63;8.25;;;9.10;99.90;;;;;;5114059;28;20560;-70
2022/04/25 08:26:58;;;;;;;18.00;8.25;;;9.00;99.90;;;;;;5114028;28;20043;-70
2022/04/25 08:29:24;;;;;;;15.25;8.95;;;9.10;99.90;;;;;;5113974;28;20139;-70
2022/04/25 08:31:50;;;;;;;18.25;8.45;;;9.10;99.90;;;;;;5113966;28;20058;-70
2022/04/25 08:34:16;;;;;;;18.80;9.02;;;9.10;99.90;;;;;;5113652;28;20520;-70
2022/04/25 08:36:42;;;;;;;15.10;8.60;;;9.10;99.90;;;;;;5096866;28;20071;-70
2022/04/25 08:39:07;;;;;;;15.20;8.77;;;9.20;99.90;;;;;;5113865;28;20091;-70
2022/04/25 08:41:35;;;;;;;15.07;8.57;;;9.20;99.90;;;;;;5113783;28;20035;-70
2022/04/25 08:44:03;;;;;;;16.08;8.55;;;9.30;99.90;;;;;;5113658;28;20411;-70
2022/04/25 08:46:32;;;;;;;16.05;8.57;;;9.30;99.90;;;;;;5096960;28;20058;-70
2022/04/25 08:49:00;;;;;;;15.95;9.00;;;9.20;99.90;;;;;;5096548;28;20043;-70
2022/04/25 08:51:28;;;;;;;18.38;9.57;;;9.30;99.90;;;;;;5097621;28;20043;-70
2022/04/25 08:53:54;;;;;;;14.90;9.02;;;9.20;99.90;;;;;;5113465;28;20051;-70
2022/04/25 08:56:23;;;;;;;13.95;9.55;;;9.20;99.90;;;;;;5096546;28;20092;-70
2022/04/25 08:58:50;;;;;;;14.20;8.85;;;9.30;99.90;;;;;;5113698;28;20040;-70
2022/04/25 09:01:16;;;;;;;16.13;8.43;;;9.40;99.90;;;;;;5113347;28;20044;-70
2022/04/25 09:03:42;;;;;;;16.08;8.40;;;9.40;99.90;;;;;;5113248;28;20564;-70
2022/04/25 09:06:08;;;;;;;17.50;9.45;;;9.50;99.90;;;;;;5113230;28;20040;-70
2022/04/25 09:08:34;;;;;;;13.95;8.73;;;9.50;99.90;;;;;;5113195;28;20047;-70
2022/04/25 09:12:09;;;;;;;14.57;9.13;;;9.50;99.90;;;;;;5113431;28;20044;-70
2022/04/25 09:13:46;;;;;;;14.57;9.02;;;9.50;99.90;;;;;;5113225;28;20046;-70
2022/04/25 09:16:16;;;;;;;17.15;8.98;;;9.40;99.90;;;;;;5113082;28;20484;-70
2022/04/25 09:18:42;;;;;;;17.67;8.85;;;9.50;99.90;;;;;;5113029;28;20047;-70
2022/04/25 09:21:09;;;;;;;15.23;9.23;;;9.50;99.90;;;;;;5112953;28;20441;-70
2022/04/25 09:23:35;;;;;;;18.70;9.05;;;9.50;99.90;;;;;;5113187;28;20050;-70
2022/04/25 09:26:21;;;;;;;15.23;8.30;;;9.60;99.90;;;;;;5112963;28;20042;-70
2022/04/25 09:28:52;;;;;;;19.52;9.02;;;9.60;99.90;;;;;;5112656;28;20089;-70
2022/04/25 09:31:19;;;;;;;15.25;7.50;;;9.50;99.90;;;;;;5112184;28;20040;-70
2022/04/25 09:33:45;;;;;;;19.52;9.52;;;9.50;99.90;;;;;;5112610;28;20039;-70
2022/04/25 09:36:11;;;;;;;16.33;8.93;;;9.50;99.90;;;;;;5096021;28;20187;-70
2022/04/25 09:38:40;;;;;;;13.95;7.70;;;9.50;99.90;;;;;;5095700;28;20487;-70
2022/04/25 09:41:11;;;;;;;14.80;8.20;;;9.40;99.90;;;;;;5112954;28;20535;-70
2022/04/25 09:43:41;;;;;;;16.13;8.95;;;9.40;99.90;;;;;;5112584;28;20124;-70
2022/04/25 09:46:08;;;;;;;15.60;8.70;;;9.30;99.90;;;;;;5112574;28;20051;-70
2022/04/25 09:48:34;;;;;;;14.23;8.80;;;9.30;99.90;;;;;;5112506;28;20036;-70
2022/04/25 09:51:02;;;;;;;12.43;8.38;;;9.30;99.90;;;;;;5095852;28;20039;-70
2022/04/25 09:53:46;;;;;;;11.68;8.63;;;9.30;99.90;;;;;;5112459;28;20040;-70
2022/04/25 09:56:17;;;;;;;12.25;7.60;;;9.40;99.90;;;;;;5112443;28;20045;-70
2022/04/25 09:58:44;;;;;;;15.68;8.52;;;9.40;99.90;;;;;;5112654;28;20130;-70
2022/04/25 10:01:14;;;;;;;11.02;7.35;;;9.50;99.90;;;;;;5112415;28;20101;-70
2022/04/25 10:03:42;;;;;;;11.50;7.03;;;9.50;99.90;;;;;;5095363;28;20165;-70
2022/04/25 10:06:08;;;;;;;15.77;7.53;;;9.50;99.90;;;;;;5112342;28;20039;-71
2022/04/25 10:08:35;;;;;;;12.05;7.38;;;9.50;99.90;;;;;;5112305;28;20058;-70
2022/04/25 10:11:09;;;;;;;15.65;7.55;;;9.50;99.90;;;;;;5112292;28;20236;-70
2022/04/25 10:13:36;;;;;;;12.27;7.07;;;9.60;99.90;;;;;;5112460;28;20126;-70
2022/04/25 10:16:02;;;;;;;12.30;7.07;;;9.60;99.90;;;;;;5112231;28;20051;-70
2022/04/25 10:18:31;;;;;;;10.40;6.40;;;9.70;99.90;;;;;;5112518;28;20043;-70
2022/04/25 10:20:58;;;;;;;11.65;6.20;;;9.70;99.90;;;;;;5095278;28;20039;-70
2022/04/25 10:23:25;;;;;;;12.50;6.30;;;9.80;99.90;;;;;;5112146;28;20127;-70
2022/04/25 10:26:00;;;;;;;13.20;6.00;;;9.80;99.90;;;;;;5112180;28;20411;-70
2022/04/25 10:28:48;;;;;;;12.00;5.78;;;9.80;99.90;;;;;;5112115;28;20031;-70
2022/04/25 10:31:41;;;;;;;8.65;5.63;;;9.90;99.90;;;;;;5112169;28;20407;-70
2022/04/25 10:34:09;;;;;;;10.98;5.57;;;9.90;99.90;;;;;;5112183;28;20070;-70
2022/04/25 10:36:37;;;;;;;10.98;5.68;;;9.90;99.90;;;;;;5112012;28;20036;-70
2022/04/25 10:39:13;;;;;;;12.20;5.65;;;9.90;99.90;;;;;;5112304;28;20079;-70
2022/04/25 10:44:29;;;;;;;11.05;6.10;;;9.90;99.90;;;;;;5116236;28;20048;-70
2022/04/25 10:47:20;;;;;;;11.30;5.68;;;10.00;99.90;;;;;;5116217;28;20388;-70
2022/04/25 10:49:58;;;;;;;11.25;5.88;;;10.00;99.90;;;;;;5108465;28;20415;-70
2022/04/25 10:55:14;;;;;;;10.35;5.90;;;10.10;99.90;;;;;;5116106;28;20040;-70
2022/04/25 10:58:03;;;;;;;9.48;5.20;;;10.10;99.90;;;;;;5098836;28;20044;-70
2022/04/25 11:00:40;;;;;;;10.20;5.43;;;10.20;99.90;;;;;;5115691;28;20079;-70
2022/04/25 11:03:14;;;;;;;9.00;5.97;;;10.30;99.90;;;;;;5115587;28;20035;-70
2022/04/25 11:05:48;;;;;;;10.23;5.22;;;10.40;99.90;;;;;;5115952;28;20075;-70
2022/04/25 11:08:19;;;;;;;12.02;5.85;;;10.60;99.90;;;;;;5115546;28;20043;-70
2022/04/25 11:11:02;;;;;;;9.82;6.13;;;10.80;99.90;;;;;;5115597;28;20055;-71
2022/04/25 11:13:33;;;;;;;9.90;5.72;;;11.00;99.90;;;;;;5116872;28;20043;-70
2022/04/25 11:16:18;;;;;;;12.40;5.93;;;11.20;99.90;;;;;;5115488;28;20035;-70
2022/04/25 11:18:45;;;;;;;9.77;5.57;;;11.30;99.90;;;;;;5115978;28;20124;-70
2022/04/25 11:21:16;;;;;;;9.68;5.53;;;11.40;99.90;;;;;;5115374;28;20040;-70
2022/04/25 11:23:44;;;;;;;8.82;5.63;;;11.50;99.90;;;;;;5098312;28;20079;-70
2022/04/25 11:26:22;;;;;;;9.98;5.57;;;11.50;99.90;;;;;;5115237;28;20046;-70
2022/04/25 11:29:04;;;;;;;10.10;6.43;;;11.50;99.90;;;;;;5098182;28;20043;-71
2022/04/25 11:31:33;;;;;;;11.43;6.10;;;11.60;99.90;;;;;;5098183;28;20038;-71
2022/04/25 11:34:04;;;;;;;9.45;6.00;;;11.80;99.90;;;;;;5114881;28;20032;-71
2022/04/25 11:36:37;;;;;;;11.48;6.43;;;12.10;99.90;;;;;;5115136;28;20123;-70
2022/04/25 11:41:47;;;;;;;8.63;6.93;;;12.40;99.90;;;;;;5114985;28;20048;-71
2022/04/25 11:44:13;;;;;;;8.90;6.82;;;12.50;99.90;;;;;;5097754;28;20039;-70
2022/04/25 11:46:41;;;;;;;10.45;6.50;;;12.70;99.90;;;;;;5114870;28;20036;-70
2022/04/25 11:49:07;;;;;;;11.82;6.82;;;12.80;99.90;;;;;;5114772;28;20395;-70
2022/04/25 11:51:40;;;;;;;10.80;6.30;;;13.00;99.90;;;;;;5097980;28;20043;-70
2022/04/25 11:54:08;;;;;;;10.13;6.88;;;13.10;99.90;;;;;;5113595;28;20044;-70
2022/04/25 11:56:41;;;;;;;11.95;6.75;;;13.20;99.90;;;;;;5114703;28;20082;-70
2022/04/25 11:59:15;;;;;;;9.90;6.80;;;13.40;99.90;;;;;;5114884;28;20050;-70
2022/04/25 12:01:47;;;;;;;8.18;6.60;;;13.50;99.90;;;;;;5114679;28;20035;-70
2022/04/25 12:04:20;;;;;;;12.77;6.50;;;13.60;99.90;;;;;;5114824;28;20082;-70
2022/04/25 12:07:10;;;;;;;9.70;6.43;;;13.70;99.90;;;;;;5114428;28;20499;-70
2022/04/25 12:15:37;;;;;;;10.05;6.22;;;13.80;99.90;;;;;;5114610;28;20084;-71
2022/04/25 12:18:25;;;;;;;9.65;6.60;;;13.80;99.90;;;;;;5114548;28;20039;-70
2022/04/25 12:20:59;;;;;;;9.18;6.07;;;13.90;99.90;;;;;;5114492;28;20051;-70
2022/04/25 12:23:39;;;;;;;8.82;6.78;;;13.90;99.90;;;;;;5114150;28;20047;-70
2022/04/25 12:26:06;;;;;;;9.13;6.55;;;13.90;99.90;;;;;;5114168;28;20082;-70
2022/04/25 12:28:37;;;;;;;12.80;6.70;;;13.90;99.90;;;;;;5114102;28;20096;-70
2022/04/25 12:31:10;;;;;;;12.13;6.38;;;13.90;99.90;;;;;;5114120;28;20530;-69
2022/04/25 12:33:47;;;;;;;9.52;6.43;;;13.90;99.90;;;;;;5113772;28;20031;-69
2022/04/25 12:36:23;;;;;;;12.52;6.30;;;14.10;99.90;;;;;;5114182;28;20108;-70
2022/04/25 12:39:14;;;;;;;10.48;6.38;;;14.30;99.90;;;;;;5114240;28;20412;-70
2022/04/25 12:41:50;;;;;;;9.32;5.88;;;14.60;99.90;;;;;;5106836;28;20056;-70
2022/04/25 12:44:17;;;;;;;11.77;6.13;;;14.80;99.90;;;;;;5113982;28;20048;-70
2022/04/25 12:46:44;;;;;;;7.95;5.88;;;15.20;99.90;;;;;;5113702;28;20502;-70
2022/04/25 12:49:18;;;;;;;9.32;6.60;;;15.50;99.90;;;;;;5113629;28;20067;-70
2022/04/25 12:51:58;;;;;;;10.18;6.15;;;15.60;99.90;;;;;;5113655;28;20067;-70
2022/04/25 12:54:31;;;;;;;12.40;6.40;;;15.70;99.90;;;;;;5113505;28;20087;-70
2022/04/25 12:57:13;;;;;;;;;;;16.00;99.90;;;;;;5113917;28;20384;-70
2022/04/25 12:59:39;;;;;;;8.02;5.78;;;16.20;99.90;;;;;;5113555;28;20014;-70
2022/04/25 13:02:14;;;;;;;12.65;6.15;;;16.30;99.90;;;;;;5113676;28;20036;-70
2022/04/25 13:05:12;;;;;;;9.98;5.97;;;16.30;99.90;;;;;;5113129;28;20511;-69
2022/04/25 13:07:42;;;;;;;8.82;5.35;;;16.30;99.90;;;;;;5038502;28;20056;-70
2022/04/25 13:10:10;;;;;;;8.93;5.75;;;16.30;99.90;;;;;;5055110;28;20123;-70
2022/04/25 13:12:43;;;;;;;9.45;5.93;;;16.20;99.90;;;;;;5054965;28;20052;-70
2022/04/25 13:15:12;;;;;;;9.93;6.00;;;16.10;99.90;;;;;;5055017;28;20140;-70
2022/04/25 13:17:39;;;;;;;9.02;6.22;;;16.00;99.90;;;;;;5055498;28;20110;-71
2022/04/25 13:20:06;;;;;;;8.88;5.78;;;15.90;99.90;;;;;;5055164;28;20052;-71
2022/04/25 13:22:33;;;;;;;9.25;5.93;;;15.80;99.90;;;;;;5054902;28;20048;-71
2022/04/25 13:24:59;;;;;;;9.85;6.22;;;15.60;99.90;;;;;;5054735;28;20479;-70
2022/04/25 13:27:25;;;;;;;9.48;5.90;;;15.40;99.90;;;;;;5038351;28;20090;-70
2022/04/25 13:29:51;;;;;;;9.95;6.10;;;15.30;99.90;;;;;;5038076;28;20515;-70
2022/04/25 13:32:17;;;;;;;10.20;5.85;;;15.10;99.90;;;;;;5054714;28;20037;-70